createdAt,value
2018-02-07T00:00:23.257Z,27.83
2018-02-07T00:02:50.774Z,29.60
2018-02-07T00:05:18.310Z,28.23
2018-02-07T00:07:45.789Z,28.13
2018-02-07T00:10:13.298Z,26.20
2018-02-07T00:12:40.824Z,28.00
2018-02-07T00:15:09.088Z,27.50
2018-02-07T00:17:36.601Z,28.60
2018-02-07T00:20:04.124Z,28.43
2018-02-07T00:22:31.641Z,27.77
2018-02-07T00:24:59.910Z,26.63
2018-02-07T00:27:27.452Z,27.27
2018-02-07T00:29:54.949Z,27.47
2018-02-07T00:32:22.451Z,25.37
2018-02-07T00:34:49.941Z,28.97
2018-02-07T00:37:17.461Z,25.00
2018-02-07T00:39:45.737Z,29.60
2018-02-07T00:42:13.254Z,26.30
2018-02-07T00:44:40.762Z,30.33
2018-02-07T00:47:08.268Z,28.80
2018-02-07T00:49:35.764Z,30.67
2018-02-07T00:52:04.043Z,27.30
2018-02-07T00:54:31.550Z,25.50
2018-02-07T00:56:59.059Z,26.00
2018-02-07T00:59:27.346Z,27.90
2018-02-07T01:01:54.895Z,26.33
2018-02-07T01:06:57.951Z,27.83
2018-02-07T01:09:25.473Z,27.20
2018-02-07T01:11:53.005Z,25.90
2018-02-07T01:14:20.526Z,26.33
2018-02-07T01:16:48.033Z,25.67
2018-02-07T01:19:16.303Z,26.13
2018-02-07T01:21:44.569Z,25.40
2018-02-07T01:24:12.090Z,28.10
2018-02-07T01:26:39.596Z,26.20
2018-02-07T01:29:07.870Z,27.23
2018-02-07T01:31:36.169Z,28.47
2018-02-07T01:34:04.441Z,26.20
2018-02-07T01:36:31.966Z,29.27
2018-02-07T01:38:59.526Z,24.43
2018-02-07T01:41:27.073Z,28.97
2018-02-07T01:43:54.600Z,26.20
2018-02-07T01:46:22.112Z,26.17
2018-02-07T01:51:23.691Z,26.00
2018-02-07T01:53:51.994Z,24.87
2018-02-07T01:56:19.493Z,23.97
2018-02-07T01:58:47.051Z,26.57
2018-02-07T02:01:14.568Z,27.90
2018-02-07T02:03:42.091Z,28.90
2018-02-07T02:06:10.379Z,26.27
2018-02-07T02:08:38.667Z,29.20
2018-02-07T02:11:06.933Z,26.50
2018-02-07T02:13:35.254Z,27.00
2018-02-07T02:16:02.756Z,27.23
2018-02-07T02:18:30.268Z,26.63
2018-02-07T02:20:57.770Z,27.40
2018-02-07T02:23:25.319Z,29.00
2018-02-07T02:25:52.845Z,27.23
2018-02-07T02:28:20.349Z,28.67
2018-02-07T02:30:47.858Z,27.23
2018-02-07T02:33:15.365Z,30.10
2018-02-07T02:35:48.820Z,30.80
2018-02-07T02:38:16.330Z,31.20
2018-02-07T02:40:43.834Z,32.87
2018-02-07T02:43:11.381Z,30.13
2018-02-07T02:45:38.896Z,32.90
2018-02-07T02:48:06.401Z,32.30
2018-02-07T02:50:33.919Z,28.10
2018-02-07T02:53:01.430Z,33.10
2018-02-07T02:55:28.929Z,33.20
2018-02-07T02:57:56.429Z,34.07
2018-02-07T03:00:23.942Z,30.03
2018-02-07T03:02:51.446Z,32.80
2018-02-07T03:05:18.953Z,30.23
2018-02-07T03:07:46.469Z,30.77
2018-02-07T03:10:13.989Z,29.30
2018-02-07T03:12:42.266Z,31.53
2018-02-07T03:15:09.786Z,32.07
2018-02-07T03:17:37.326Z,31.80
2018-02-07T03:20:04.839Z,30.70
2018-02-07T03:22:33.113Z,30.40
2018-02-07T03:25:00.644Z,32.20
2018-02-07T03:27:28.910Z,29.13
2018-02-07T03:29:56.461Z,30.47
2018-02-07T03:32:23.977Z,28.70
2018-02-07T03:34:51.498Z,28.67
2018-02-07T03:37:19.043Z,32.50
2018-02-07T03:39:46.588Z,31.33
2018-02-07T03:42:14.136Z,29.57
2018-02-07T03:44:42.424Z,31.70
2018-02-07T03:47:10.003Z,28.93
2018-02-07T03:49:37.511Z,29.10
2018-02-07T03:52:05.825Z,30.13
2018-02-07T03:54:33.367Z,27.23
2018-02-07T03:57:00.942Z,31.07
2018-02-07T03:59:28.480Z,29.80
2018-02-07T04:01:56.780Z,28.77
2018-02-07T04:04:24.294Z,24.90
2018-02-07T04:06:52.629Z,29.83
2018-02-07T04:09:20.163Z,31.00
2018-02-07T04:11:47.721Z,31.60
2018-02-07T04:14:15.275Z,30.80
2018-02-07T04:16:43.557Z,31.50
2018-02-07T04:19:11.072Z,31.20
2018-02-07T04:21:38.577Z,31.10
2018-02-07T04:24:06.078Z,30.30
2018-02-07T04:26:33.601Z,28.57
2018-02-07T04:29:01.089Z,33.80
2018-02-07T04:31:28.588Z,31.20
2018-02-07T04:33:56.872Z,32.80
2018-02-07T04:36:24.414Z,32.10
2018-02-07T04:38:51.914Z,27.43
2018-02-07T04:41:19.448Z,29.40
2018-02-07T04:43:47.738Z,32.73
2018-02-07T04:46:16.006Z,34.77
2018-02-07T04:48:43.533Z,31.43
2018-02-07T04:51:11.065Z,30.03
2018-02-07T04:53:38.600Z,32.83
2018-02-07T04:56:06.166Z,29.47
2018-02-07T04:58:33.689Z,33.00
2018-02-07T05:01:01.994Z,33.03
2018-02-07T05:03:29.513Z,30.33
2018-02-07T05:05:57.041Z,33.20
2018-02-07T05:08:24.566Z,33.47
2018-02-07T05:10:52.080Z,34.67
2018-02-07T05:13:19.619Z,29.83
2018-02-07T05:15:47.138Z,32.00
2018-02-07T05:18:14.667Z,31.60
2018-02-07T05:20:42.200Z,29.97
2018-02-07T05:23:09.717Z,31.70
2018-02-07T05:25:37.222Z,33.80
2018-02-07T05:28:04.751Z,31.53
2018-02-07T05:30:32.314Z,33.40
2018-02-07T05:32:59.844Z,32.53
2018-02-07T05:35:28.118Z,31.47
2018-02-07T05:37:56.385Z,31.30
2018-02-07T05:40:24.649Z,30.97
2018-02-07T05:42:52.185Z,30.13
2018-02-07T05:45:19.701Z,32.80
2018-02-07T05:47:47.293Z,33.47
2018-02-07T05:50:14.938Z,31.03
2018-02-07T05:52:42.473Z,34.00
2018-02-07T05:55:10.800Z,32.07
2018-02-07T05:57:38.322Z,34.60
2018-02-07T06:00:05.830Z,31.20
2018-02-07T06:02:33.348Z,33.27
2018-02-07T06:05:00.871Z,31.43
2018-02-07T06:07:28.419Z,34.00
2018-02-07T06:09:55.929Z,31.97
2018-02-07T06:12:23.419Z,29.77
2018-02-07T06:14:51.713Z,33.50
2018-02-07T06:17:19.234Z,28.80
2018-02-07T06:19:46.749Z,31.30
2018-02-07T06:22:15.022Z,32.23
2018-02-07T06:24:43.330Z,30.93
2018-02-07T06:27:10.869Z,33.47
2018-02-07T06:29:39.168Z,33.80
2018-02-07T06:32:06.679Z,32.30
2018-02-07T06:34:35.025Z,34.67
2018-02-07T06:37:02.558Z,33.90
2018-02-07T06:39:30.090Z,31.17
2018-02-07T06:41:58.360Z,33.83
2018-02-07T06:44:26.681Z,31.20
2018-02-07T06:46:54.293Z,31.87
2018-02-07T06:49:22.582Z,31.07
2018-02-07T06:51:50.855Z,29.00
2018-02-07T06:54:19.133Z,32.47
2018-02-07T06:56:47.452Z,34.17
2018-02-07T06:59:14.979Z,35.97
2018-02-07T07:01:43.281Z,32.37
2018-02-07T07:04:10.797Z,34.97
2018-02-07T07:06:38.317Z,34.10
2018-02-07T07:09:05.826Z,33.87
2018-02-07T07:11:34.156Z,34.77
2018-02-07T07:14:01.677Z,32.87
2018-02-07T07:16:29.983Z,28.20
2018-02-07T07:18:57.461Z,31.40
2018-02-07T07:21:24.968Z,32.00
2018-02-07T07:23:53.221Z,29.07
2018-02-07T07:26:21.555Z,33.73
2018-02-07T07:28:49.057Z,32.20
2018-02-07T07:31:17.372Z,32.30
2018-02-07T07:33:44.873Z,33.10
2018-02-07T07:36:12.405Z,34.43
2018-02-07T07:38:39.917Z,34.57
2018-02-07T07:41:08.189Z,29.63
2018-02-07T07:43:36.460Z,31.50
2018-02-07T07:46:03.981Z,32.73
2018-02-07T07:48:31.498Z,31.40
2018-02-07T07:50:59.781Z,31.90
2018-02-07T07:53:28.039Z,34.80
2018-02-07T07:55:55.512Z,34.37
2018-02-07T07:58:23.936Z,33.47
2018-02-07T08:00:51.458Z,32.77
2018-02-07T08:03:19.005Z,32.60
2018-02-07T08:05:47.326Z,35.13
2018-02-07T08:08:14.856Z,34.70
2018-02-07T08:10:42.393Z,32.33
2018-02-07T08:13:10.696Z,32.93
2018-02-07T08:15:38.241Z,34.90
2018-02-07T08:18:05.791Z,33.60
2018-02-07T08:20:34.085Z,35.00
2018-02-07T08:23:01.630Z,34.40
2018-02-07T08:25:29.261Z,31.70
2018-02-07T08:27:56.879Z,30.10
2018-02-07T08:30:24.418Z,32.73
2018-02-07T08:32:52.879Z,34.50
2018-02-07T08:35:20.454Z,34.73
2018-02-07T08:37:48.770Z,34.40
2018-02-07T08:40:16.429Z,34.23
2018-02-07T08:42:44.094Z,32.27
2018-02-07T08:45:11.605Z,30.93
2018-02-07T08:47:39.985Z,31.97
2018-02-07T08:50:08.250Z,32.97
2018-02-07T08:52:35.895Z,35.33
2018-02-07T08:55:03.440Z,33.80
2018-02-07T08:57:31.734Z,36.07
2018-02-07T08:59:59.299Z,35.10
2018-02-07T09:02:26.817Z,34.20
2018-02-07T09:04:54.352Z,33.67
2018-02-07T09:07:22.645Z,34.93
2018-02-07T09:09:50.173Z,32.90
2018-02-07T09:12:18.544Z,32.27
2018-02-07T09:14:46.214Z,33.07
2018-02-07T09:17:14.552Z,34.10
2018-02-07T09:19:42.069Z,35.20
2018-02-07T09:22:09.611Z,34.37
2018-02-07T09:24:37.914Z,27.97
2018-02-07T09:27:05.461Z,32.10
2018-02-07T09:29:33.782Z,35.87
2018-02-07T09:32:01.330Z,29.57
2018-02-07T09:34:28.871Z,35.87
2018-02-07T09:36:56.406Z,34.20
2018-02-07T09:39:24.728Z,31.63
2018-02-07T09:41:52.286Z,33.87
2018-02-07T09:44:19.814Z,34.67
2018-02-07T09:46:47.355Z,31.83
2018-02-07T09:49:15.682Z,32.23
2018-02-07T09:51:43.229Z,29.87
2018-02-07T09:54:10.812Z,30.50
2018-02-07T09:56:38.321Z,33.60
2018-02-07T09:59:06.622Z,33.60
2018-02-07T10:01:34.236Z,35.13
2018-02-07T10:04:01.750Z,35.50
2018-02-07T10:06:29.312Z,36.73
2018-02-07T10:08:56.837Z,29.47
2018-02-07T10:11:25.219Z,36.90
2018-02-07T10:13:52.951Z,31.07
2018-02-07T10:16:20.486Z,36.63
2018-02-07T10:18:48.104Z,36.10
2018-02-07T10:21:15.828Z,35.70
2018-02-07T10:23:43.519Z,37.57
2018-02-07T10:26:11.970Z,31.80
2018-02-07T10:28:39.649Z,35.13
2018-02-07T10:31:07.336Z,37.73
2018-02-07T10:33:34.905Z,36.40
2018-02-07T10:36:02.474Z,37.20
2018-02-07T10:38:30.081Z,37.47
2018-02-07T10:40:57.639Z,35.20
2018-02-07T10:43:25.190Z,33.83
2018-02-07T10:45:52.738Z,34.27
2018-02-07T10:48:20.260Z,38.40
2018-02-07T10:50:47.973Z,37.03
2018-02-07T10:53:15.513Z,38.97
2018-02-07T10:55:43.051Z,36.50
2018-02-07T10:58:10.710Z,40.77
2018-02-07T11:00:38.272Z,29.30
2018-02-07T11:03:05.821Z,35.70
2018-02-07T11:05:34.126Z,32.97
2018-02-07T11:08:01.657Z,39.37
2018-02-07T11:10:29.214Z,36.20
2018-02-07T11:12:57.486Z,30.73
2018-02-07T11:15:25.814Z,37.07
2018-02-07T11:17:53.338Z,36.53
2018-02-07T11:20:20.963Z,32.67
2018-02-07T11:22:48.624Z,35.60
2018-02-07T11:25:16.154Z,34.30
2018-02-07T11:27:43.706Z,36.03
2018-02-07T11:30:11.262Z,39.00
2018-02-07T11:32:38.835Z,38.83
2018-02-07T11:35:06.389Z,38.37
2018-02-07T11:37:33.934Z,38.17
2018-02-07T11:40:01.497Z,38.90
2018-02-07T11:42:29.098Z,40.90
2018-02-07T11:44:56.748Z,41.40
2018-02-07T11:47:24.287Z,40.50
2018-02-07T11:49:51.813Z,39.83
2018-02-07T11:52:19.324Z,40.87
2018-02-07T11:54:46.881Z,38.53
2018-02-07T11:57:14.422Z,36.83
2018-02-07T11:59:41.993Z,37.50
2018-02-07T12:02:09.533Z,36.50
2018-02-07T12:04:37.072Z,38.50
2018-02-07T12:07:04.608Z,38.33
2018-02-07T12:09:32.941Z,36.50
2018-02-07T12:12:00.548Z,34.97
2018-02-07T12:14:28.115Z,33.93
2018-02-07T12:16:56.597Z,37.33
2018-02-07T12:19:24.947Z,36.80
2018-02-07T12:21:52.641Z,34.03
2018-02-07T12:24:20.334Z,36.73
2018-02-07T12:26:47.998Z,35.50
2018-02-07T12:29:15.653Z,31.90
2018-02-07T12:31:43.333Z,33.40
2018-02-07T12:34:11.576Z,36.93
2018-02-07T12:36:39.234Z,33.03
2018-02-07T12:39:07.589Z,33.20
2018-02-07T12:41:35.140Z,35.50
2018-02-07T12:44:02.683Z,36.20
2018-02-07T12:46:30.253Z,35.30
2018-02-07T12:48:57.781Z,34.40
2018-02-07T12:51:25.332Z,34.30
2018-02-07T12:53:52.890Z,34.57
2018-02-07T12:56:20.581Z,32.70
2018-02-07T12:58:48.241Z,33.77
2018-02-07T13:01:15.806Z,33.70
2018-02-07T13:03:43.367Z,35.23
2018-02-07T13:06:11.026Z,32.43
2018-02-07T13:08:38.568Z,31.77
2018-02-07T13:11:06.175Z,33.37
2018-02-07T13:13:33.744Z,34.13
2018-02-07T13:16:02.061Z,31.77
2018-02-07T13:18:29.596Z,34.43
2018-02-07T13:20:57.141Z,32.43
2018-02-07T13:23:25.446Z,31.83
2018-02-07T13:25:53.003Z,34.10
2018-02-07T13:28:20.548Z,34.00
2018-02-07T13:30:48.117Z,30.83
2018-02-07T13:33:15.644Z,31.13
2018-02-07T13:35:43.977Z,32.90
2018-02-07T13:38:11.534Z,33.47
2018-02-07T13:40:39.109Z,31.17
2018-02-07T13:43:07.398Z,33.83
2018-02-07T13:45:35.059Z,33.37
2018-02-07T13:48:02.711Z,30.60
2018-02-07T13:50:30.439Z,31.23
2018-02-07T13:52:58.002Z,34.90
2018-02-07T13:55:25.582Z,32.53
2018-02-07T13:57:53.113Z,33.47
2018-02-07T14:00:20.638Z,33.70
2018-02-07T14:02:48.319Z,34.20
2018-02-07T14:05:16.625Z,31.30
2018-02-07T14:07:44.243Z,32.67
2018-02-07T14:10:12.683Z,31.43
2018-02-07T14:12:40.242Z,32.87
2018-02-07T14:15:07.866Z,34.27
2018-02-07T14:17:35.432Z,32.03
2018-02-07T14:20:02.920Z,30.90
2018-02-07T14:22:31.712Z,32.20
2018-02-07T14:24:59.332Z,34.40
2018-02-07T14:27:26.966Z,31.33
2018-02-07T14:29:54.551Z,32.23
2018-02-07T14:32:22.849Z,31.93
2018-02-07T14:34:50.405Z,29.20
2018-02-07T14:37:17.949Z,31.30
2018-02-07T14:39:45.540Z,33.87
2018-02-07T14:42:16.230Z,33.77
2018-02-07T14:44:43.874Z,34.97
2018-02-07T14:47:13.329Z,35.23
2018-02-07T14:49:40.920Z,33.63
2018-02-07T14:52:08.485Z,33.10
2018-02-07T14:54:36.074Z,33.50
2018-02-07T14:57:04.382Z,33.87
2018-02-07T14:59:32.056Z,33.60
2018-02-07T15:02:00.454Z,29.90
2018-02-07T15:04:29.042Z,32.73
2018-02-07T15:06:56.562Z,30.80
2018-02-07T15:09:24.107Z,34.03
2018-02-07T15:11:51.666Z,32.47
2018-02-07T15:14:19.984Z,32.53
2018-02-07T15:16:49.305Z,32.30
2018-02-07T15:19:16.867Z,33.10
2018-02-07T15:21:44.405Z,32.23
2018-02-07T15:24:11.964Z,33.50
2018-02-07T15:26:39.551Z,32.53
2018-02-07T15:29:07.099Z,29.80
2018-02-07T15:31:34.663Z,31.43
2018-02-07T15:34:02.212Z,33.60
2018-02-07T15:36:29.830Z,32.20
2018-02-07T15:38:58.164Z,35.20
2018-02-07T15:41:25.765Z,33.10
2018-02-07T15:43:53.315Z,30.70
2018-02-07T15:46:21.604Z,33.70
2018-02-07T15:48:49.160Z,31.87
2018-02-07T15:51:16.701Z,32.17
2018-02-07T15:53:45.023Z,36.00
2018-02-07T15:56:13.346Z,33.23
2018-02-07T15:58:40.862Z,32.33
2018-02-07T16:01:08.421Z,31.87
2018-02-07T16:03:37.809Z,33.53
2018-02-07T16:06:05.378Z,35.60
2018-02-07T16:08:33.682Z,34.43
2018-02-07T16:11:07.860Z,37.33
2018-02-07T16:13:35.404Z,40.73
2018-02-07T16:16:03.726Z,33.70
2018-02-07T16:18:31.256Z,47.47
2018-02-07T16:20:58.802Z,47.77
2018-02-07T16:23:27.065Z,39.23
2018-02-07T16:25:54.638Z,35.47
2018-02-07T16:28:22.934Z,33.90
2018-02-07T16:30:50.498Z,32.83
2018-02-07T16:33:18.032Z,34.33
2018-02-07T16:35:45.570Z,36.50
2018-02-07T16:38:13.086Z,34.80
2018-02-07T16:40:40.568Z,34.53
2018-02-07T16:43:10.658Z,34.40
2018-02-07T16:45:38.209Z,32.90
2018-02-07T16:48:07.704Z,33.27
2018-02-07T16:50:36.032Z,34.53
2018-02-07T16:53:05.046Z,31.90
2018-02-07T16:55:32.614Z,31.50
2018-02-07T16:58:00.151Z,29.80
2018-02-07T17:00:27.681Z,34.17
2018-02-07T17:02:56.078Z,32.60
2018-02-07T17:05:23.621Z,34.13
2018-02-07T17:07:51.204Z,36.77
2018-02-07T17:10:18.762Z,32.27
2018-02-07T17:12:46.521Z,32.37
2018-02-07T17:15:23.391Z,32.50
2018-02-07T17:17:50.899Z,32.43
2018-02-07T17:20:18.409Z,32.77
2018-02-07T17:22:45.975Z,31.47
2018-02-07T17:25:13.508Z,32.73
2018-02-07T17:27:41.024Z,32.50
2018-02-07T17:30:08.546Z,31.73
2018-02-07T17:32:36.076Z,31.63
2018-02-07T17:35:03.567Z,32.30
2018-02-07T17:37:31.081Z,33.70
2018-02-07T17:39:59.374Z,31.27
2018-02-07T17:42:26.897Z,34.40
2018-02-07T17:44:54.453Z,33.10
2018-02-07T17:47:21.993Z,31.83
2018-02-07T17:49:49.537Z,31.63
2018-02-07T17:52:17.080Z,30.57
2018-02-07T17:54:44.663Z,33.80
2018-02-07T17:57:12.214Z,30.80
2018-02-07T17:59:39.755Z,32.40
2018-02-07T18:02:07.309Z,33.23
2018-02-07T18:04:34.843Z,30.37
2018-02-07T18:07:02.403Z,32.27
2018-02-07T18:09:29.966Z,32.50
2018-02-07T18:11:58.270Z,32.27
2018-02-07T18:14:25.814Z,33.37
2018-02-07T18:16:53.384Z,32.93
2018-02-07T18:19:20.946Z,30.50
2018-02-07T18:21:48.469Z,30.97
2018-02-07T18:24:16.030Z,32.90
2018-02-07T18:26:43.625Z,32.47
2018-02-07T18:29:11.163Z,34.33
2018-02-07T18:31:39.505Z,31.00
2018-02-07T18:34:07.028Z,32.20
2018-02-07T18:36:34.585Z,30.10
2018-02-07T18:39:02.122Z,33.03
2018-02-07T18:41:30.465Z,35.77
2018-02-07T18:43:58.086Z,31.47
2018-02-07T18:46:25.587Z,32.80
2018-02-07T18:48:53.133Z,33.27
2018-02-07T18:51:20.674Z,30.10
2018-02-07T18:53:48.218Z,31.23
2018-02-07T18:56:15.753Z,33.73
2018-02-07T18:58:44.048Z,28.87
2018-02-07T19:01:12.450Z,32.30
2018-02-07T19:03:40.003Z,30.73
2018-02-07T19:06:07.531Z,32.87
2018-02-07T19:08:35.838Z,29.50
2018-02-07T19:11:03.365Z,33.10
2018-02-07T19:13:31.683Z,34.63
2018-02-07T19:15:59.237Z,32.50
2018-02-07T19:18:26.796Z,34.23
2018-02-07T19:20:54.366Z,33.10
2018-02-07T19:23:21.978Z,33.53
2018-02-07T19:25:49.547Z,33.73
2018-02-07T19:28:17.886Z,33.33
2018-02-07T19:30:45.431Z,30.90
2018-02-07T19:33:13.662Z,30.20
2018-02-07T19:35:46.501Z,35.23
2018-02-07T19:38:14.081Z,33.07
2018-02-07T19:40:46.531Z,34.90
2018-02-07T19:43:14.095Z,32.83
2018-02-07T19:45:41.753Z,35.60
2018-02-07T19:48:09.294Z,37.83
2018-02-07T19:50:36.843Z,32.47
2018-02-07T19:53:04.389Z,32.23
2018-02-07T19:55:32.017Z,34.70
2018-02-07T19:57:59.572Z,36.70
2018-02-07T20:00:29.251Z,33.53
2018-02-07T20:07:56.778Z,32.13
2018-02-07T20:27:53.517Z,29.87
2018-02-07T20:30:21.060Z,33.40
2018-02-07T20:32:48.616Z,34.17
2018-02-07T20:35:17.151Z,33.37
2018-02-07T20:37:45.594Z,32.97
2018-02-07T20:40:26.383Z,33.10
2018-02-07T20:42:53.933Z,33.43
2018-02-07T20:45:21.511Z,35.23
2018-02-07T20:47:49.064Z,32.60
2018-02-07T20:50:16.580Z,33.07
2018-02-07T20:52:44.142Z,32.17
2018-02-07T20:55:11.731Z,35.70
2018-02-07T20:57:39.308Z,34.90
2018-02-07T21:00:06.863Z,33.77
2018-02-07T21:02:34.436Z,32.93
2018-02-07T21:05:01.953Z,32.30
2018-02-07T21:07:29.516Z,33.83
2018-02-07T21:09:57.097Z,31.53
2018-02-07T21:12:24.667Z,34.07
2018-02-07T21:14:52.236Z,31.60
2018-02-07T21:17:19.793Z,30.50
2018-02-07T21:19:47.330Z,33.57
2018-02-07T21:22:14.873Z,34.57
2018-02-07T21:24:42.458Z,35.70
2018-02-07T21:29:43.878Z,31.27
2018-02-07T21:32:11.637Z,33.50
2018-02-07T21:34:41.429Z,31.23
2018-02-07T21:37:17.406Z,34.33
2018-02-07T21:39:51.741Z,30.77
2018-02-07T21:42:19.398Z,35.20
2018-02-07T21:44:47.422Z,34.43
2018-02-07T21:47:19.244Z,33.50
2018-02-07T21:49:46.897Z,32.67
2018-02-07T21:52:14.981Z,33.73
2018-02-07T21:54:43.352Z,36.47
2018-02-07T21:57:21.332Z,34.00
2018-02-07T21:59:49.690Z,33.67
2018-02-07T22:02:18.140Z,36.60
2018-02-07T22:04:46.585Z,35.03
2018-02-07T22:07:14.275Z,31.77
2018-02-07T22:09:41.804Z,31.87
2018-02-07T22:12:11.287Z,33.97
2018-02-07T22:14:39.688Z,30.50
2018-02-07T22:17:07.454Z,32.30
2018-02-07T22:19:35.155Z,33.73
2018-02-07T22:22:03.114Z,33.10
2018-02-07T22:24:30.760Z,33.57
2018-02-07T22:26:58.369Z,34.60
2018-02-07T22:29:29.943Z,34.47
2018-02-07T22:31:59.666Z,32.57
2018-02-07T22:34:27.381Z,32.30
2018-02-07T22:36:54.947Z,35.40
2018-02-07T22:39:22.593Z,33.20
2018-02-07T22:41:50.189Z,34.33
2018-02-07T22:44:29.247Z,33.60
2018-02-07T22:46:56.892Z,34.50
2018-02-07T22:49:24.530Z,33.73
2018-02-07T22:51:53.101Z,31.67
2018-02-07T22:54:21.074Z,37.20
2018-02-07T22:57:10.751Z,36.00
2018-02-07T22:59:40.018Z,33.93
2018-02-07T23:02:07.714Z,32.80
2018-02-07T23:04:35.328Z,30.80
2018-02-07T23:07:18.123Z,35.07
2018-02-07T23:09:50.769Z,35.80
2018-02-07T23:12:18.831Z,36.50
2018-02-07T23:14:46.584Z,35.60
2018-02-07T23:17:14.257Z,33.80
2018-02-07T23:19:41.960Z,36.83
2018-02-07T23:22:11.648Z,36.20
2018-02-07T23:24:39.913Z,37.87
2018-02-07T23:27:07.609Z,36.30
2018-02-07T23:29:39.810Z,33.93
2018-02-07T23:32:07.530Z,35.43
2018-02-07T23:34:35.884Z,38.43
2018-02-07T23:37:03.585Z,36.97
2018-02-07T23:39:43.846Z,40.03
2018-02-07T23:42:15.272Z,38.43
2018-02-07T23:44:42.826Z,39.70
2018-02-07T23:47:10.337Z,37.60
2018-02-07T23:49:37.874Z,36.77
2018-02-07T23:52:05.466Z,33.13
2018-02-07T23:54:32.980Z,36.57
2018-02-07T23:57:00.543Z,34.10
2018-02-07T23:59:28.848Z,38.67
